Briefing drone pour Moirans

Rechercher une autre localisation

Conditions de vol :


Nous sommes le : Mercredi 23 juin 2021
Il est 02:29 UTC (04:29 LT)

Lever de soleil : 03:24 UTC (05:24 LT)
Coucher de soleil : 19:55 UTC (21:55 LT)

Météo

L'essentiel des conditions de vol

VIGILANCE MÉTÉO FRANCE - Isère (38)
Vigilance Jaune : Orages
CARTE TEMSI
CARTES DES FRONTS
METAR de LFLS
LFLS 230200Z AUTO 35001KT 3500 R09/1300U BR FEW014 15/15 Q1016

Date d'émission: 23/06/2021
Heure d'émission: 02:00 UTC
Vent: 350° pour 1 KT (2 km/h)
Visibilité horizontale: 3500/R09/1300U m
Plafond :
- Peu de nuages à 1400ft (427m)
Température: 15 °C
Point de rosée: 15 °C
Humidité: 100%
Pression (QNH): 1016 hPa
Conditions: Brume
TAF de LFLS
LFLS 221908Z 2219/2315 CNL

Conditions prévues :

Heure d'émission : Bulletin éffectué le 22 à 19:00 UTC
Prévision : Valide du 22 a 19:00 UTC au 23 a 15:00 UTC
Nuages : à 0ft (0 m)
WEBCAM POUR MOIRANS

Réglementation

Voler en sécurité

CARTES AERONAUTIQUE 1/500.000
CARTES VAC (LFLS)
SUP AIP




Chargement des AIP...
NOTAM (MOIRANS + Terrain à proximité / FIR )




Chargement des NOTAMS...
CONTACT PREFECTURE 38


Avertissement : Les données mises à disposition sont indicatives. Oxygène Drone ne pourra être tenu responsable de dégâts causés aux biens et aux personnes.